sensor_id;sensor_type;location;lat;lon;timestamp;P1;durP1;ratioP1;P2;durP2;ratioP2
3991;SDS011;2010;48.194;16.394;2022-09-20T00:01:37;3.10;;;1.80;;
3991;SDS011;2010;48.194;16.394;2022-09-20T00:04:06;1.80;;;1.57;;
3991;SDS011;2010;48.194;16.394;2022-09-20T00:06:34;2.43;;;1.83;;
3991;SDS011;2010;48.194;16.394;2022-09-20T00:09:04;2.13;;;1.73;;
3991;SDS011;2010;48.194;16.394;2022-09-20T00:11:32;2.23;;;1.90;;
3991;SDS011;2010;48.194;16.394;2022-09-20T00:14:02;2.40;;;2.07;;
3991;SDS011;2010;48.194;16.394;2022-09-20T00:16:35;3.93;;;2.40;;
3991;SDS011;2010;48.194;16.394;2022-09-20T00:19:04;2.80;;;2.07;;
3991;SDS011;2010;48.194;16.394;2022-09-20T00:21:34;4.97;;;2.30;;
3991;SDS011;2010;48.194;16.394;2022-09-20T00:24:05;3.50;;;2.27;;
3991;SDS011;2010;48.194;16.394;2022-09-20T00:26:33;2.93;;;1.87;;
3991;SDS011;2010;48.194;16.394;2022-09-20T00:29:02;2.33;;;2.13;;
3991;SDS011;2010;48.194;16.394;2022-09-20T00:31:31;2.20;;;1.83;;
3991;SDS011;2010;48.194;16.394;2022-09-20T00:34:01;4.83;;;2.20;;
3991;SDS011;2010;48.194;16.394;2022-09-20T00:36:46;4.00;;;1.73;;
3991;SDS011;2010;48.194;16.394;2022-09-20T00:39:16;4.40;;;2.20;;
3991;SDS011;2010;48.194;16.394;2022-09-20T00:41:44;2.33;;;1.83;;
3991;SDS011;2010;48.194;16.394;2022-09-20T00:47:24;3.43;;;2.03;;
3991;SDS011;2010;48.194;16.394;2022-09-20T00:49:57;2.73;;;2.20;;
3991;SDS011;2010;48.194;16.394;2022-09-20T00:52:28;6.17;;;2.00;;
3991;SDS011;2010;48.194;16.394;2022-09-20T00:54:58;2.63;;;1.90;;
3991;SDS011;2010;48.194;16.394;2022-09-20T00:57:27;3.13;;;1.87;;
3991;SDS011;2010;48.194;16.394;2022-09-20T01:00:03;2.90;;;1.80;;
3991;SDS011;2010;48.194;16.394;2022-09-20T01:02:33;3.23;;;1.90;;
3991;SDS011;2010;48.194;16.394;2022-09-20T01:05:03;2.77;;;2.03;;
3991;SDS011;2010;48.194;16.394;2022-09-20T01:07:33;1.73;;;1.63;;
3991;SDS011;2010;48.194;16.394;2022-09-20T01:10:02;1.93;;;1.83;;
3991;SDS011;2010;48.194;16.394;2022-09-20T01:12:31;4.73;;;1.97;;
3991;SDS011;2010;48.194;16.394;2022-09-20T01:15:01;4.13;;;2.20;;
3991;SDS011;2010;48.194;16.394;2022-09-20T01:17:31;4.40;;;1.87;;
3991;SDS011;2010;48.194;16.394;2022-09-20T01:20:08;4.27;;;1.90;;
3991;SDS011;2010;48.194;16.394;2022-09-20T01:22:42;1.83;;;1.67;;
3991;SDS011;2010;48.194;16.394;2022-09-20T01:25:20;2.17;;;1.80;;
3991;SDS011;2010;48.194;16.394;2022-09-20T01:27:55;3.17;;;2.00;;
3991;SDS011;2010;48.194;16.394;2022-09-20T01:30:24;3.20;;;1.90;;
3991;SDS011;2010;48.194;16.394;2022-09-20T01:32:59;2.60;;;1.80;;
3991;SDS011;2010;48.194;16.394;2022-09-20T01:35:34;2.03;;;1.83;;
3991;SDS011;2010;48.194;16.394;2022-09-20T01:38:05;3.00;;;1.77;;
3991;SDS011;2010;48.194;16.394;2022-09-20T01:40:42;5.73;;;1.90;;
3991;SDS011;2010;48.194;16.394;2022-09-20T01:43:17;7.20;;;1.60;;
3991;SDS011;2010;48.194;16.394;2022-09-20T01:45:50;1.70;;;1.60;;
3991;SDS011;2010;48.194;16.394;2022-09-20T01:48:23;2.00;;;1.80;;
3991;SDS011;2010;48.194;16.394;2022-09-20T01:51:04;5.77;;;1.70;;
3991;SDS011;2010;48.194;16.394;2022-09-20T01:56:46;1.73;;;1.60;;
3991;SDS011;2010;48.194;16.394;2022-09-20T01:59:32;4.70;;;1.80;;
3991;SDS011;2010;48.194;16.394;2022-09-20T02:02:08;2.83;;;2.00;;
3991;SDS011;2010;48.194;16.394;2022-09-20T02:04:41;2.03;;;1.70;;
3991;SDS011;2010;48.194;16.394;2022-09-20T02:10:34;2.27;;;1.93;;
3991;SDS011;2010;48.194;16.394;2022-09-20T02:13:08;1.73;;;1.63;;
3991;SDS011;2010;48.194;16.394;2022-09-20T02:18:37;3.17;;;1.90;;
3991;SDS011;2010;48.194;16.394;2022-09-20T02:21:17;5.43;;;1.97;;
3991;SDS011;2010;48.194;16.394;2022-09-20T02:23:55;3.83;;;2.30;;
3991;SDS011;2010;48.194;16.394;2022-09-20T02:26:32;1.80;;;1.70;;
3991;SDS011;2010;48.194;16.394;2022-09-20T02:29:15;1.90;;;1.80;;
3991;SDS011;2010;48.194;16.394;2022-09-20T02:31:53;3.80;;;1.73;;
3991;SDS011;2010;48.194;16.394;2022-09-20T02:34:43;4.00;;;1.60;;
3991;SDS011;2010;48.194;16.394;2022-09-20T02:37:25;3.67;;;1.90;;
3991;SDS011;2010;48.194;16.394;2022-09-20T02:40:16;2.20;;;1.40;;
3991;SDS011;2010;48.194;16.394;2022-09-20T02:42:54;2.03;;;1.77;;
3991;SDS011;2010;48.194;16.394;2022-09-20T02:45:27;2.13;;;1.60;;
3991;SDS011;2010;48.194;16.394;2022-09-20T02:48:01;1.87;;;1.37;;
3991;SDS011;2010;48.194;16.394;2022-09-20T02:50:32;1.60;;;1.50;;
3991;SDS011;2010;48.194;16.394;2022-09-20T02:53:10;1.50;;;1.40;;
3991;SDS011;2010;48.194;16.394;2022-09-20T02:55:53;1.77;;;1.67;;
3991;SDS011;2010;48.194;16.394;2022-09-20T02:58:30;1.50;;;1.40;;
3991;SDS011;2010;48.194;16.394;2022-09-20T03:01:06;2.30;;;1.70;;
3991;SDS011;2010;48.194;16.394;2022-09-20T03:03:43;2.80;;;1.63;;
3991;SDS011;2010;48.194;16.394;2022-09-20T03:06:19;1.60;;;1.50;;
3991;SDS011;2010;48.194;16.394;2022-09-20T03:08:53;1.40;;;1.30;;
3991;SDS011;2010;48.194;16.394;2022-09-20T03:11:26;2.13;;;2.00;;
3991;SDS011;2010;48.194;16.394;2022-09-20T03:14:00;2.37;;;1.90;;
3991;SDS011;2010;48.194;16.394;2022-09-20T03:16:34;2.20;;;1.50;;
3991;SDS011;2010;48.194;16.394;2022-09-20T03:19:12;2.70;;;1.97;;
3991;SDS011;2010;48.194;16.394;2022-09-20T03:21:49;1.87;;;1.70;;
3991;SDS011;2010;48.194;16.394;2022-09-20T03:24:23;1.77;;;1.63;;
3991;SDS011;2010;48.194;16.394;2022-09-20T03:26:57;1.90;;;1.80;;
3991;SDS011;2010;48.194;16.394;2022-09-20T03:29:33;1.73;;;1.63;;
3991;SDS011;2010;48.194;16.394;2022-09-20T03:32:13;2.40;;;1.87;;
3991;SDS011;2010;48.194;16.394;2022-09-20T03:34:53;2.43;;;1.90;;
3991;SDS011;2010;48.194;16.394;2022-09-20T03:37:33;2.50;;;1.70;;
3991;SDS011;2010;48.194;16.394;2022-09-20T03:40:20;4.33;;;2.37;;
3991;SDS011;2010;48.194;16.394;2022-09-20T03:42:57;2.00;;;1.70;;
3991;SDS011;2010;48.194;16.394;2022-09-20T03:45:33;2.50;;;1.93;;
3991;SDS011;2010;48.194;16.394;2022-09-20T03:51:26;2.00;;;1.90;;
3991;SDS011;2010;48.194;16.394;2022-09-20T03:57:09;6.90;;;2.87;;
3991;SDS011;2010;48.194;16.394;2022-09-20T03:59:50;2.83;;;2.23;;
3991;SDS011;2010;48.194;16.394;2022-09-20T04:02:32;6.13;;;2.57;;
3991;SDS011;2010;48.194;16.394;2022-09-20T04:05:08;4.97;;;2.30;;
3991;SDS011;2010;48.194;16.394;2022-09-20T04:07:40;2.63;;;2.30;;
3991;SDS011;2010;48.194;16.394;2022-09-20T04:10:26;3.17;;;2.10;;
3991;SDS011;2010;48.194;16.394;2022-09-20T04:13:04;2.70;;;2.40;;
3991;SDS011;2010;48.194;16.394;2022-09-20T04:15:42;2.33;;;2.13;;
3991;SDS011;2010;48.194;16.394;2022-09-20T04:18:21;3.60;;;2.60;;
3991;SDS011;2010;48.194;16.394;2022-09-20T04:20:55;2.57;;;2.20;;
3991;SDS011;2010;48.194;16.394;2022-09-20T04:23:31;5.90;;;1.90;;
3991;SDS011;2010;48.194;16.394;2022-09-20T04:26:03;3.23;;;3.03;;
3991;SDS011;2010;48.194;16.394;2022-09-20T04:28:35;3.17;;;2.83;;
3991;SDS011;2010;48.194;16.394;2022-09-20T04:31:15;2.70;;;2.50;;
3991;SDS011;2010;48.194;16.394;2022-09-20T04:33:49;2.70;;;2.50;;
3991;SDS011;2010;48.194;16.394;2022-09-20T04:36:23;3.53;;;3.20;;
3991;SDS011;2010;48.194;16.394;2022-09-20T04:39:06;2.93;;;2.77;;
3991;SDS011;2010;48.194;16.394;2022-09-20T04:42:00;3.53;;;2.90;;
3991;SDS011;2010;48.194;16.394;2022-09-20T04:45:12;3.10;;;2.80;;
3991;SDS011;2010;48.194;16.394;2022-09-20T04:48:09;3.43;;;3.00;;
3991;SDS011;2010;48.194;16.394;2022-09-20T04:51:16;4.23;;;2.47;;
3991;SDS011;2010;48.194;16.394;2022-09-20T04:57:02;3.73;;;2.90;;
3991;SDS011;2010;48.194;16.394;2022-09-20T04:59:51;6.60;;;2.00;;
3991;SDS011;2010;48.194;16.394;2022-09-20T05:02:44;6.33;;;2.60;;
3991;SDS011;2010;48.194;16.394;2022-09-20T05:14:52;2.00;;;1.90;;
3991;SDS011;2010;48.194;16.394;2022-09-20T05:17:37;8.70;;;2.30;;
3991;SDS011;2010;48.194;16.394;2022-09-20T05:20:22;2.93;;;1.57;;
3991;SDS011;2010;48.194;16.394;2022-09-20T05:23:08;4.60;;;2.17;;
3991;SDS011;2010;48.194;16.394;2022-09-20T05:25:56;2.53;;;1.70;;
3991;SDS011;2010;48.194;16.394;2022-09-20T05:28:35;2.07;;;1.87;;
3991;SDS011;2010;48.194;16.394;2022-09-20T05:31:12;2.00;;;1.80;;
3991;SDS011;2010;48.194;16.394;2022-09-20T05:33:46;3.10;;;2.17;;
3991;SDS011;2010;48.194;16.394;2022-09-20T05:36:19;2.10;;;2.00;;
3991;SDS011;2010;48.194;16.394;2022-09-20T05:39:01;2.13;;;1.77;;
3991;SDS011;2010;48.194;16.394;2022-09-20T05:41:36;3.67;;;1.80;;
3991;SDS011;2010;48.194;16.394;2022-09-20T05:44:14;2.03;;;1.90;;
3991;SDS011;2010;48.194;16.394;2022-09-20T05:46:54;3.80;;;1.90;;
3991;SDS011;2010;48.194;16.394;2022-09-20T05:49:31;4.07;;;2.00;;
3991;SDS011;2010;48.194;16.394;2022-09-20T05:52:11;2.40;;;1.90;;
3991;SDS011;2010;48.194;16.394;2022-09-20T05:54:52;2.90;;;2.07;;
3991;SDS011;2010;48.194;16.394;2022-09-20T05:57:30;3.57;;;2.40;;
3991;SDS011;2010;48.194;16.394;2022-09-20T06:00:08;3.00;;;1.77;;
3991;SDS011;2010;48.194;16.394;2022-09-20T06:02:41;2.00;;;1.87;;
3991;SDS011;2010;48.194;16.394;2022-09-20T06:05:14;3.27;;;2.60;;
3991;SDS011;2010;48.194;16.394;2022-09-20T06:07:53;7.13;;;2.73;;
3991;SDS011;2010;48.194;16.394;2022-09-20T06:13:36;2.00;;;1.90;;
3991;SDS011;2010;48.194;16.394;2022-09-20T06:16:16;2.53;;;2.40;;
3991;SDS011;2010;48.194;16.394;2022-09-20T06:18:49;2.70;;;2.50;;
3991;SDS011;2010;48.194;16.394;2022-09-20T06:21:23;2.50;;;2.37;;
3991;SDS011;2010;48.194;16.394;2022-09-20T06:23:57;2.53;;;2.33;;
3991;SDS011;2010;48.194;16.394;2022-09-20T06:26:29;2.90;;;2.70;;
3991;SDS011;2010;48.194;16.394;2022-09-20T06:29:03;2.70;;;2.50;;
3991;SDS011;2010;48.194;16.394;2022-09-20T06:31:35;5.10;;;2.90;;
3991;SDS011;2010;48.194;16.394;2022-09-20T06:34:04;4.33;;;2.87;;
3991;SDS011;2010;48.194;16.394;2022-09-20T06:36:38;3.00;;;2.67;;
3991;SDS011;2010;48.194;16.394;2022-09-20T06:39:33;6.00;;;3.07;;
3991;SDS011;2010;48.194;16.394;2022-09-20T06:42:25;3.50;;;2.50;;
3991;SDS011;2010;48.194;16.394;2022-09-20T06:44:55;3.40;;;2.50;;
3991;SDS011;2010;48.194;16.394;2022-09-20T06:47:24;2.83;;;2.63;;
3991;SDS011;2010;48.194;16.394;2022-09-20T06:49:55;3.33;;;3.00;;
3991;SDS011;2010;48.194;16.394;2022-09-20T06:52:24;6.13;;;3.30;;
3991;SDS011;2010;48.194;16.394;2022-09-20T06:54:53;2.50;;;2.30;;
3991;SDS011;2010;48.194;16.394;2022-09-20T06:57:22;2.77;;;2.57;;
3991;SDS011;2010;48.194;16.394;2022-09-20T06:59:59;3.53;;;3.27;;
3991;SDS011;2010;48.194;16.394;2022-09-20T07:02:29;2.87;;;2.67;;
3991;SDS011;2010;48.194;16.394;2022-09-20T07:04:57;4.20;;;2.90;;
3991;SDS011;2010;48.194;16.394;2022-09-20T07:07:25;3.80;;;3.20;;
3991;SDS011;2010;48.194;16.394;2022-09-20T07:09:53;3.53;;;2.63;;
3991;SDS011;2010;48.194;16.394;2022-09-20T07:12:21;3.03;;;2.73;;
3991;SDS011;2010;48.194;16.394;2022-09-20T07:14:50;4.70;;;2.83;;
3991;SDS011;2010;48.194;16.394;2022-09-20T07:17:18;5.20;;;2.40;;
3991;SDS011;2010;48.194;16.394;2022-09-20T07:19:49;3.20;;;2.27;;
3991;SDS011;2010;48.194;16.394;2022-09-20T07:22:17;3.10;;;2.90;;
3991;SDS011;2010;48.194;16.394;2022-09-20T07:24:45;2.80;;;2.20;;
3991;SDS011;2010;48.194;16.394;2022-09-20T07:27:16;4.50;;;2.67;;
3991;SDS011;2010;48.194;16.394;2022-09-20T07:29:44;2.60;;;2.10;;
3991;SDS011;2010;48.194;16.394;2022-09-20T07:32:13;3.03;;;1.83;;
3991;SDS011;2010;48.194;16.394;2022-09-20T07:34:42;2.70;;;2.30;;
3991;SDS011;2010;48.194;16.394;2022-09-20T07:37:12;3.03;;;2.00;;
3991;SDS011;2010;48.194;16.394;2022-09-20T07:39:43;4.70;;;2.30;;
3991;SDS011;2010;48.194;16.394;2022-09-20T07:42:11;3.40;;;2.03;;
3991;SDS011;2010;48.194;16.394;2022-09-20T07:44:40;2.60;;;1.40;;
3991;SDS011;2010;48.194;16.394;2022-09-20T07:47:09;4.63;;;2.53;;
3991;SDS011;2010;48.194;16.394;2022-09-20T07:49:39;3.40;;;2.07;;
3991;SDS011;2010;48.194;16.394;2022-09-20T07:52:12;4.83;;;2.00;;
3991;SDS011;2010;48.194;16.394;2022-09-20T07:54:41;3.00;;;2.60;;
3991;SDS011;2010;48.194;16.394;2022-09-20T07:57:09;3.37;;;2.43;;
3991;SDS011;2010;48.194;16.394;2022-09-20T07:59:37;3.07;;;2.77;;
3991;SDS011;2010;48.194;16.394;2022-09-20T08:02:05;2.50;;;2.30;;
3991;SDS011;2010;48.194;16.394;2022-09-20T08:04:33;2.57;;;2.37;;
3991;SDS011;2010;48.194;16.394;2022-09-20T08:07:01;5.60;;;2.57;;
3991;SDS011;2010;48.194;16.394;2022-09-20T08:09:31;2.80;;;2.60;;
3991;SDS011;2010;48.194;16.394;2022-09-20T08:11:59;3.37;;;2.77;;
3991;SDS011;2010;48.194;16.394;2022-09-20T08:14:47;2.53;;;2.20;;
3991;SDS011;2010;48.194;16.394;2022-09-20T08:17:15;3.20;;;2.90;;
3991;SDS011;2010;48.194;16.394;2022-09-20T08:19:44;4.67;;;3.60;;
3991;SDS011;2010;48.194;16.394;2022-09-20T08:22:13;5.13;;;4.17;;
3991;SDS011;2010;48.194;16.394;2022-09-20T08:24:43;4.37;;;2.90;;
3991;SDS011;2010;48.194;16.394;2022-09-20T08:27:12;5.30;;;3.13;;
3991;SDS011;2010;48.194;16.394;2022-09-20T08:29:40;3.50;;;3.10;;
3991;SDS011;2010;48.194;16.394;2022-09-20T08:32:08;2.40;;;2.30;;
3991;SDS011;2010;48.194;16.394;2022-09-20T08:34:36;5.60;;;3.27;;
3991;SDS011;2010;48.194;16.394;2022-09-20T08:37:05;4.60;;;2.70;;
3991;SDS011;2010;48.194;16.394;2022-09-20T08:39:33;3.20;;;2.90;;
3991;SDS011;2010;48.194;16.394;2022-09-20T08:42:24;3.53;;;2.37;;
3991;SDS011;2010;48.194;16.394;2022-09-20T08:45:00;2.50;;;2.30;;
3991;SDS011;2010;48.194;16.394;2022-09-20T08:47:30;3.07;;;2.63;;
3991;SDS011;2010;48.194;16.394;2022-09-20T08:50:02;4.60;;;2.80;;
3991;SDS011;2010;48.194;16.394;2022-09-20T08:52:37;3.07;;;2.77;;
3991;SDS011;2010;48.194;16.394;2022-09-20T08:55:12;3.13;;;2.17;;
3991;SDS011;2010;48.194;16.394;2022-09-20T08:57:44;3.40;;;3.10;;
3991;SDS011;2010;48.194;16.394;2022-09-20T09:00:16;2.43;;;2.23;;
3991;SDS011;2010;48.194;16.394;2022-09-20T09:02:46;2.53;;;2.33;;
3991;SDS011;2010;48.194;16.394;2022-09-20T09:05:27;4.80;;;2.80;;
3991;SDS011;2010;48.194;16.394;2022-09-20T09:08:00;3.10;;;2.80;;
3991;SDS011;2010;48.194;16.394;2022-09-20T09:10:32;2.90;;;2.63;;
3991;SDS011;2010;48.194;16.394;2022-09-20T09:13:19;5.67;;;2.60;;
3991;SDS011;2010;48.194;16.394;2022-09-20T09:15:52;2.57;;;2.37;;
3991;SDS011;2010;48.194;16.394;2022-09-20T09:18:29;3.27;;;2.40;;
3991;SDS011;2010;48.194;16.394;2022-09-20T09:21:01;2.30;;;2.13;;
3991;SDS011;2010;48.194;16.394;2022-09-20T09:23:37;3.23;;;2.57;;
3991;SDS011;2010;48.194;16.394;2022-09-20T09:26:13;2.30;;;2.10;;
3991;SDS011;2010;48.194;16.394;2022-09-20T09:28:46;3.07;;;2.20;;
3991;SDS011;2010;48.194;16.394;2022-09-20T09:31:20;4.40;;;1.87;;
3991;SDS011;2010;48.194;16.394;2022-09-20T09:33:52;2.30;;;2.10;;
3991;SDS011;2010;48.194;16.394;2022-09-20T09:36:25;1.60;;;1.50;;
3991;SDS011;2010;48.194;16.394;2022-09-20T09:41:41;2.40;;;2.03;;
3991;SDS011;2010;48.194;16.394;2022-09-20T09:44:22;3.30;;;2.20;;
3991;SDS011;2010;48.194;16.394;2022-09-20T09:46:53;3.17;;;1.90;;
3991;SDS011;2010;48.194;16.394;2022-09-20T09:49:23;4.23;;;2.07;;
3991;SDS011;2010;48.194;16.394;2022-09-20T09:52:00;3.23;;;1.67;;
3991;SDS011;2010;48.194;16.394;2022-09-20T09:54:32;2.13;;;1.97;;
3991;SDS011;2010;48.194;16.394;2022-09-20T09:57:06;2.87;;;1.80;;
3991;SDS011;2010;48.194;16.394;2022-09-20T09:59:50;1.97;;;1.07;;
3991;SDS011;2010;48.194;16.394;2022-09-20T10:02:37;1.40;;;1.03;;
3991;SDS011;2010;48.194;16.394;2022-09-20T10:05:19;1.20;;;1.10;;
3991;SDS011;2010;48.194;16.394;2022-09-20T10:07:51;1.73;;;1.00;;
3991;SDS011;2010;48.194;16.394;2022-09-20T10:10:28;6.53;;;0.90;;
3991;SDS011;2010;48.194;16.394;2022-09-20T10:13:05;2.40;;;0.90;;
3991;SDS011;2010;48.194;16.394;2022-09-20T10:15:40;2.17;;;1.90;;
3991;SDS011;2010;48.194;16.394;2022-09-20T10:18:27;2.90;;;1.53;;
3991;SDS011;2010;48.194;16.394;2022-09-20T10:21:08;1.77;;;1.00;;
3991;SDS011;2010;48.194;16.394;2022-09-20T10:23:51;1.63;;;1.50;;
3991;SDS011;2010;48.194;16.394;2022-09-20T10:26:40;2.13;;;1.33;;
3991;SDS011;2010;48.194;16.394;2022-09-20T10:29:22;1.60;;;1.07;;
3991;SDS011;2010;48.194;16.394;2022-09-20T10:32:00;0.60;;;0.57;;
3991;SDS011;2010;48.194;16.394;2022-09-20T10:34:37;3.43;;;0.80;;
3991;SDS011;2010;48.194;16.394;2022-09-20T10:37:14;0.70;;;0.70;;
3991;SDS011;2010;48.194;16.394;2022-09-20T10:39:49;2.70;;;0.80;;
3991;SDS011;2010;48.194;16.394;2022-09-20T10:42:28;1.63;;;0.90;;
3991;SDS011;2010;48.194;16.394;2022-09-20T10:45:20;2.30;;;0.80;;
3991;SDS011;2010;48.194;16.394;2022-09-20T10:48:17;0.77;;;0.77;;
3991;SDS011;2010;48.194;16.394;2022-09-20T10:50:50;2.93;;;1.00;;
3991;SDS011;2010;48.194;16.394;2022-09-20T10:53:26;2.10;;;0.80;;
3991;SDS011;2010;48.194;16.394;2022-09-20T10:56:00;0.97;;;0.70;;
3991;SDS011;2010;48.194;16.394;2022-09-20T10:58:53;2.73;;;1.10;;
3991;SDS011;2010;48.194;16.394;2022-09-20T11:01:52;2.77;;;0.80;;
3991;SDS011;2010;48.194;16.394;2022-09-20T11:04:39;0.90;;;0.90;;
3991;SDS011;2010;48.194;16.394;2022-09-20T11:07:26;1.10;;;0.80;;
3991;SDS011;2010;48.194;16.394;2022-09-20T11:10:03;2.83;;;1.20;;
3991;SDS011;2010;48.194;16.394;2022-09-20T11:12:39;7.47;;;0.83;;
3991;SDS011;2010;48.194;16.394;2022-09-20T11:15:13;1.77;;;1.23;;
3991;SDS011;2010;48.194;16.394;2022-09-20T11:17:44;1.17;;;0.70;;
3991;SDS011;2010;48.194;16.394;2022-09-20T11:20:19;0.80;;;0.80;;
3991;SDS011;2010;48.194;16.394;2022-09-20T11:22:50;2.60;;;1.10;;
3991;SDS011;2010;48.194;16.394;2022-09-20T11:25:22;0.97;;;0.67;;
3991;SDS011;2010;48.194;16.394;2022-09-20T11:27:56;1.73;;;0.83;;
3991;SDS011;2010;48.194;16.394;2022-09-20T11:30:29;1.47;;;0.67;;
3991;SDS011;2010;48.194;16.394;2022-09-20T11:33:01;2.00;;;0.80;;
3991;SDS011;2010;48.194;16.394;2022-09-20T11:35:37;3.40;;;0.67;;
3991;SDS011;2010;48.194;16.394;2022-09-20T11:38:10;0.90;;;0.63;;
3991;SDS011;2010;48.194;16.394;2022-09-20T11:40:44;0.50;;;0.50;;
3991;SDS011;2010;48.194;16.394;2022-09-20T11:43:15;1.60;;;0.80;;
3991;SDS011;2010;48.194;16.394;2022-09-20T11:45:47;1.27;;;0.70;;
3991;SDS011;2010;48.194;16.394;2022-09-20T11:48:22;1.93;;;1.03;;
3991;SDS011;2010;48.194;16.394;2022-09-20T11:54:06;1.17;;;0.80;;
3991;SDS011;2010;48.194;16.394;2022-09-20T11:56:48;0.90;;;0.90;;
3991;SDS011;2010;48.194;16.394;2022-09-20T11:59:24;0.87;;;0.87;;
3991;SDS011;2010;48.194;16.394;2022-09-20T12:01:55;5.83;;;1.43;;
3991;SDS011;2010;48.194;16.394;2022-09-20T12:04:28;1.30;;;1.20;;
3991;SDS011;2010;48.194;16.394;2022-09-20T12:07:02;2.40;;;1.30;;
3991;SDS011;2010;48.194;16.394;2022-09-20T12:09:39;1.80;;;1.10;;
3991;SDS011;2010;48.194;16.394;2022-09-20T12:12:20;3.87;;;1.07;;
3991;SDS011;2010;48.194;16.394;2022-09-20T12:14:56;1.53;;;1.30;;
3991;SDS011;2010;48.194;16.394;2022-09-20T12:23:44;7.63;;;1.73;;
3991;SDS011;2010;48.194;16.394;2022-09-20T12:32:31;2.00;;;1.60;;
3991;SDS011;2010;48.194;16.394;2022-09-20T12:38:29;3.77;;;1.50;;
3991;SDS011;2010;48.194;16.394;2022-09-20T12:41:06;1.33;;;1.23;;
3991;SDS011;2010;48.194;16.394;2022-09-20T12:43:37;3.13;;;1.17;;
3991;SDS011;2010;48.194;16.394;2022-09-20T12:46:19;1.90;;;1.10;;
3991;SDS011;2010;48.194;16.394;2022-09-20T12:48:49;1.23;;;1.10;;
3991;SDS011;2010;48.194;16.394;2022-09-20T12:51:21;1.60;;;1.17;;
3991;SDS011;2010;48.194;16.394;2022-09-20T12:54:10;3.90;;;1.50;;
3991;SDS011;2010;48.194;16.394;2022-09-20T12:56:42;1.87;;;1.67;;
3991;SDS011;2010;48.194;16.394;2022-09-20T12:59:19;13.73;;;1.70;;
3991;SDS011;2010;48.194;16.394;2022-09-20T13:01:50;1.80;;;1.20;;
3991;SDS011;2010;48.194;16.394;2022-09-20T13:04:38;1.60;;;1.50;;
3991;SDS011;2010;48.194;16.394;2022-09-20T13:07:38;2.07;;;1.47;;
3991;SDS011;2010;48.194;16.394;2022-09-20T13:15:58;3.13;;;1.77;;
3991;SDS011;2010;48.194;16.394;2022-09-20T13:18:33;3.27;;;1.83;;
3991;SDS011;2010;48.194;16.394;2022-09-20T13:21:02;1.70;;;1.30;;
3991;SDS011;2010;48.194;16.394;2022-09-20T13:23:37;3.57;;;1.90;;
3991;SDS011;2010;48.194;16.394;2022-09-20T13:26:13;1.60;;;1.23;;
3991;SDS011;2010;48.194;16.394;2022-09-20T13:28:48;2.50;;;1.50;;
3991;SDS011;2010;48.194;16.394;2022-09-20T13:31:21;7.30;;;1.63;;
3991;SDS011;2010;48.194;16.394;2022-09-20T13:33:52;1.90;;;1.50;;
3991;SDS011;2010;48.194;16.394;2022-09-20T13:36:25;2.33;;;1.67;;
3991;SDS011;2010;48.194;16.394;2022-09-20T13:38:55;4.10;;;1.43;;
3991;SDS011;2010;48.194;16.394;2022-09-20T13:41:26;2.27;;;1.10;;
3991;SDS011;2010;48.194;16.394;2022-09-20T13:43:59;2.27;;;1.40;;
3991;SDS011;2010;48.194;16.394;2022-09-20T13:46:28;6.23;;;1.27;;
3991;SDS011;2010;48.194;16.394;2022-09-20T13:49:08;3.07;;;1.50;;
3991;SDS011;2010;48.194;16.394;2022-09-20T13:51:41;2.53;;;1.50;;
3991;SDS011;2010;48.194;16.394;2022-09-20T13:54:26;1.77;;;1.37;;
3991;SDS011;2010;48.194;16.394;2022-09-20T13:56:56;2.60;;;1.27;;
3991;SDS011;2010;48.194;16.394;2022-09-20T13:59:32;4.00;;;1.00;;
3991;SDS011;2010;48.194;16.394;2022-09-20T14:02:03;2.57;;;1.30;;
3991;SDS011;2010;48.194;16.394;2022-09-20T14:04:32;2.10;;;1.00;;
3991;SDS011;2010;48.194;16.394;2022-09-20T14:07:02;4.00;;;1.10;;
3991;SDS011;2010;48.194;16.394;2022-09-20T14:09:35;3.03;;;1.00;;
3991;SDS011;2010;48.194;16.394;2022-09-20T14:12:05;1.10;;;0.87;;
3991;SDS011;2010;48.194;16.394;2022-09-20T14:14:37;0.97;;;0.80;;
3991;SDS011;2010;48.194;16.394;2022-09-20T14:17:05;4.50;;;1.20;;
3991;SDS011;2010;48.194;16.394;2022-09-20T14:19:37;1.07;;;0.97;;
3991;SDS011;2010;48.194;16.394;2022-09-20T14:22:07;4.53;;;1.40;;
3991;SDS011;2010;48.194;16.394;2022-09-20T14:24:53;3.60;;;1.10;;
3991;SDS011;2010;48.194;16.394;2022-09-20T14:27:25;2.20;;;1.03;;
3991;SDS011;2010;48.194;16.394;2022-09-20T14:29:59;1.23;;;1.20;;
3991;SDS011;2010;48.194;16.394;2022-09-20T14:32:37;2.23;;;1.67;;
3991;SDS011;2010;48.194;16.394;2022-09-20T14:35:11;2.63;;;2.27;;
3991;SDS011;2010;48.194;16.394;2022-09-20T14:37:42;5.80;;;2.20;;
3991;SDS011;2010;48.194;16.394;2022-09-20T14:40:20;1.67;;;1.43;;
3991;SDS011;2010;48.194;16.394;2022-09-20T14:42:51;2.20;;;1.30;;
3991;SDS011;2010;48.194;16.394;2022-09-20T14:45:26;2.17;;;1.27;;
3991;SDS011;2010;48.194;16.394;2022-09-20T14:47:59;1.93;;;1.40;;
3991;SDS011;2010;48.194;16.394;2022-09-20T14:50:37;1.13;;;1.03;;
3991;SDS011;2010;48.194;16.394;2022-09-20T14:53:21;4.80;;;1.30;;
3991;SDS011;2010;48.194;16.394;2022-09-20T14:55:56;5.03;;;1.80;;
3991;SDS011;2010;48.194;16.394;2022-09-20T14:58:27;2.40;;;1.37;;
3991;SDS011;2010;48.194;16.394;2022-09-20T15:01:00;1.60;;;1.20;;
3991;SDS011;2010;48.194;16.394;2022-09-20T15:03:33;3.60;;;1.10;;
3991;SDS011;2010;48.194;16.394;2022-09-20T15:06:08;1.13;;;1.13;;
3991;SDS011;2010;48.194;16.394;2022-09-20T15:08:37;1.10;;;0.97;;
3991;SDS011;2010;48.194;16.394;2022-09-20T15:11:13;1.73;;;1.30;;
3991;SDS011;2010;48.194;16.394;2022-09-20T15:13:42;1.23;;;1.13;;
3991;SDS011;2010;48.194;16.394;2022-09-20T15:16:12;0.90;;;0.90;;
3991;SDS011;2010;48.194;16.394;2022-09-20T15:18:43;1.30;;;1.17;;
3991;SDS011;2010;48.194;16.394;2022-09-20T15:21:12;3.53;;;1.60;;
3991;SDS011;2010;48.194;16.394;2022-09-20T15:23:41;1.60;;;1.50;;
3991;SDS011;2010;48.194;16.394;2022-09-20T15:26:11;1.83;;;1.70;;
3991;SDS011;2010;48.194;16.394;2022-09-20T15:28:41;1.53;;;1.30;;
3991;SDS011;2010;48.194;16.394;2022-09-20T15:31:10;1.00;;;1.00;;
3991;SDS011;2010;48.194;16.394;2022-09-20T15:33:42;4.80;;;1.10;;
3991;SDS011;2010;48.194;16.394;2022-09-20T15:36:11;1.00;;;0.90;;
3991;SDS011;2010;48.194;16.394;2022-09-20T15:38:40;1.53;;;1.07;;
3991;SDS011;2010;48.194;16.394;2022-09-20T15:41:09;1.20;;;1.10;;
3991;SDS011;2010;48.194;16.394;2022-09-20T15:43:38;1.00;;;1.00;;
3991;SDS011;2010;48.194;16.394;2022-09-20T15:46:16;1.10;;;1.00;;
3991;SDS011;2010;48.194;16.394;2022-09-20T15:48:49;1.10;;;1.10;;
3991;SDS011;2010;48.194;16.394;2022-09-20T15:51:18;0.90;;;0.90;;
3991;SDS011;2010;48.194;16.394;2022-09-20T15:53:53;1.23;;;1.00;;
3991;SDS011;2010;48.194;16.394;2022-09-20T15:56:23;1.10;;;1.00;;
3991;SDS011;2010;48.194;16.394;2022-09-20T15:58:55;1.30;;;1.20;;
3991;SDS011;2010;48.194;16.394;2022-09-20T16:01:26;1.20;;;1.10;;
3991;SDS011;2010;48.194;16.394;2022-09-20T16:04:03;1.30;;;1.20;;
3991;SDS011;2010;48.194;16.394;2022-09-20T16:06:33;1.63;;;1.30;;
3991;SDS011;2010;48.194;16.394;2022-09-20T16:09:01;2.47;;;1.73;;
3991;SDS011;2010;48.194;16.394;2022-09-20T16:11:30;1.67;;;1.40;;
3991;SDS011;2010;48.194;16.394;2022-09-20T16:13:59;1.50;;;1.40;;
3991;SDS011;2010;48.194;16.394;2022-09-20T16:16:28;1.70;;;1.60;;
3991;SDS011;2010;48.194;16.394;2022-09-20T16:19:06;2.90;;;1.70;;
3991;SDS011;2010;48.194;16.394;2022-09-20T16:21:47;1.60;;;1.50;;
3991;SDS011;2010;48.194;16.394;2022-09-20T16:24:28;2.20;;;1.53;;
3991;SDS011;2010;48.194;16.394;2022-09-20T16:26:59;1.57;;;1.40;;
3991;SDS011;2010;48.194;16.394;2022-09-20T16:29:28;1.73;;;1.63;;
3991;SDS011;2010;48.194;16.394;2022-09-20T16:31:58;3.70;;;1.60;;
3991;SDS011;2010;48.194;16.394;2022-09-20T16:34:31;1.77;;;1.67;;
3991;SDS011;2010;48.194;16.394;2022-09-20T16:37:01;2.70;;;1.60;;
3991;SDS011;2010;48.194;16.394;2022-09-20T16:39:31;2.50;;;1.30;;
3991;SDS011;2010;48.194;16.394;2022-09-20T16:42:00;3.27;;;1.57;;
3991;SDS011;2010;48.194;16.394;2022-09-20T16:44:30;1.77;;;1.47;;
3991;SDS011;2010;48.194;16.394;2022-09-20T16:46:59;2.30;;;1.40;;
3991;SDS011;2010;48.194;16.394;2022-09-20T16:49:30;2.73;;;1.27;;